Time;durP1;ratioP1;P1;durP2;ratioP2;P2;SDS_P1;SDS_P2;PMS_P1;PMS_P2;Temp;Humidity;BMP_temperature;BMP_pressure;BME280_temperature;BME280_humidity;BME280_pressure;Samples;Min_cycle;Max_cycle;Signal;HPM_P1;HPM_P2
2023/09/25 00:00:32;;;;;;;1.50;1.30;;;14.80;99.90;;;;;;5103041;28;21238;-65
2023/09/25 00:02:59;;;;;;;2.80;1.70;;;14.80;99.90;;;;;;5102758;28;21122;-64
2023/09/25 00:05:26;;;;;;;2.40;1.60;;;14.80;99.90;;;;;;5103548;28;20421;-64
2023/09/25 00:07:53;;;;;;;1.50;1.40;;;14.80;99.90;;;;;;5102340;28;20441;-65
2023/09/25 00:10:18;;;;;;;1.33;1.23;;;14.90;99.90;;;;;;5102995;28;20437;-64
2023/09/25 00:12:44;;;;;;;1.40;1.30;;;14.90;99.90;;;;;;5100549;28;20480;-65
2023/09/25 00:15:10;;;;;;;2.20;1.83;;;14.90;99.90;;;;;;5103333;28;20253;-64
2023/09/25 00:17:37;;;;;;;2.80;1.63;;;15.00;99.90;;;;;;5102421;28;20665;-64
2023/09/25 00:20:04;;;;;;;1.67;1.30;;;15.00;99.90;;;;;;5102654;28;20429;-64
2023/09/25 00:22:30;;;;;;;1.93;1.30;;;15.00;99.90;;;;;;5102682;28;20967;-65
2023/09/25 00:24:57;;;;;;;1.93;1.60;;;15.10;99.90;;;;;;5088507;28;20492;-65
2023/09/25 00:27:23;;;;;;;2.17;1.60;;;15.10;99.90;;;;;;5097340;28;20832;-65
2023/09/25 00:29:49;;;;;;;2.27;2.00;;;15.10;99.90;;;;;;5100941;28;20464;-65
2023/09/25 00:32:15;;;;;;;1.40;1.30;;;15.10;99.90;;;;;;5102844;28;20425;-65
2023/09/25 00:34:41;;;;;;;2.03;1.43;;;15.20;99.90;;;;;;5102014;28;20188;-65
2023/09/25 00:37:07;;;;;;;1.90;1.63;;;15.20;99.90;;;;;;5102964;28;20927;-64
2023/09/25 00:39:33;;;;;;;2.13;1.40;;;15.20;99.90;;;;;;5101552;28;20275;-65
2023/09/25 00:41:59;;;;;;;1.47;1.30;;;15.20;99.90;;;;;;5102474;28;20548;-64
2023/09/25 00:44:25;;;;;;;2.83;1.40;;;15.20;99.90;;;;;;5102266;28;20256;-64
2023/09/25 00:46:51;;;;;;;1.30;1.20;;;15.30;99.90;;;;;;5102415;28;20441;-65
2023/09/25 00:49:17;;;;;;;1.33;1.23;;;15.30;99.90;;;;;;5102479;28;20187;-65
2023/09/25 00:51:44;;;;;;;1.80;1.07;;;15.30;99.90;;;;;;5102589;28;20410;-65
2023/09/25 00:54:15;;;;;;;3.00;1.77;;;15.30;99.90;;;;;;5103362;28;20179;-65
2023/09/25 00:56:41;;;;;;;2.37;2.20;;;15.30;99.90;;;;;;5102313;28;20432;-64
2023/09/25 00:59:07;;;;;;;1.57;1.47;;;15.30;99.90;;;;;;5102950;28;20422;-64
2023/09/25 01:01:34;;;;;;;1.30;1.20;;;15.30;99.90;;;;;;5102636;28;20658;-64
2023/09/25 01:03:59;;;;;;;1.70;1.60;;;15.30;99.90;;;;;;5102813;28;20480;-65
2023/09/25 01:06:25;;;;;;;2.27;1.23;;;15.30;99.90;;;;;;5102784;28;20760;-65
2023/09/25 01:08:51;;;;;;;1.53;1.43;;;15.30;99.90;;;;;;5102231;28;20217;-64
2023/09/25 01:11:17;;;;;;;2.23;1.73;;;15.30;99.90;;;;;;5102603;28;20440;-65
2023/09/25 01:13:42;;;;;;;1.40;1.30;;;15.40;99.90;;;;;;5083708;28;20203;-64
2023/09/25 01:16:08;;;;;;;1.70;1.30;;;15.40;99.90;;;;;;5102798;28;20217;-65
2023/09/25 01:18:34;;;;;;;1.80;1.70;;;15.40;99.90;;;;;;5101769;28;20176;-64
2023/09/25 01:21:03;;;;;;;2.23;1.50;;;15.40;99.90;;;;;;5102697;28;20194;-64
2023/09/25 01:23:29;;;;;;;2.03;1.50;;;15.40;99.90;;;;;;5102127;28;20216;-65
2023/09/25 01:25:54;;;;;;;1.57;1.47;;;15.40;99.90;;;;;;5102163;28;20421;-65
2023/09/25 01:28:20;;;;;;;2.93;1.47;;;15.40;99.90;;;;;;5102116;28;20430;-65
2023/09/25 01:30:46;;;;;;;1.47;1.20;;;15.40;99.90;;;;;;5097869;28;20215;-66
2023/09/25 01:33:11;;;;;;;1.40;1.10;;;15.40;99.90;;;;;;5106675;28;20188;-65
2023/09/25 01:35:37;;;;;;;1.67;1.50;;;15.40;99.90;;;;;;5105501;28;20219;-65
2023/09/25 01:38:06;;;;;;;5.67;1.53;;;15.40;99.90;;;;;;5106048;28;20183;-65
2023/09/25 01:40:32;;;;;;;1.70;1.23;;;15.40;99.90;;;;;;5105814;28;20206;-65
2023/09/25 01:42:58;;;;;;;1.53;1.43;;;15.40;99.90;;;;;;5106471;28;20883;-65
2023/09/25 01:45:23;;;;;;;2.00;1.80;;;15.40;99.90;;;;;;5105580;28;20572;-64
2023/09/25 01:47:51;;;;;;;2.27;1.50;;;15.40;99.90;;;;;;5105536;28;20436;-64
2023/09/25 01:50:28;;;;;;;1.50;1.40;;;15.40;99.90;;;;;;5105942;28;20473;-65
2023/09/25 01:53:00;;;;;;;1.40;1.30;;;15.40;99.90;;;;;;5105401;28;20492;-64
2023/09/25 01:55:35;;;;;;;1.77;1.10;;;15.30;99.90;;;;;;5105907;28;20421;-65
2023/09/25 01:58:06;;;;;;;1.30;1.20;;;15.30;99.90;;;;;;5105814;28;20447;-64
2023/09/25 02:00:32;;;;;;;1.67;1.57;;;15.30;99.90;;;;;;5105287;28;20528;-65
2023/09/25 02:02:57;;;;;;;3.83;1.30;;;15.30;99.90;;;;;;5105800;28;20984;-64
2023/09/25 02:05:23;;;;;;;3.03;1.00;;;15.30;99.90;;;;;;5105467;28;20683;-64
2023/09/25 02:07:49;;;;;;;3.23;1.40;;;15.30;99.90;;;;;;5104799;28;20278;-64
2023/09/25 02:10:15;;;;;;;2.63;1.53;;;15.30;99.90;;;;;;5105595;28;20212;-65
2023/09/25 02:12:41;;;;;;;3.47;1.43;;;15.30;99.90;;;;;;5105181;28;20188;-65
2023/09/25 02:15:08;;;;;;;1.20;1.10;;;15.20;99.90;;;;;;5105502;28;20434;-65
2023/09/25 02:17:34;;;;;;;1.20;1.10;;;15.20;99.90;;;;;;5104735;28;20274;-64
2023/09/25 02:22:46;;;;;;;1.37;1.10;;;15.30;99.90;;;;;;5104789;28;20469;-64
2023/09/25 02:25:12;;;;;;;2.00;1.37;;;15.20;99.90;;;;;;5105124;28;20540;-65
2023/09/25 02:27:41;;;;;;;1.63;1.43;;;15.30;99.90;;;;;;5103903;28;20434;-65
2023/09/25 02:30:08;;;;;;;1.57;1.23;;;15.30;99.90;;;;;;5104779;28;20498;-65
2023/09/25 02:32:35;;;;;;;1.70;1.20;;;15.30;99.90;;;;;;5104362;28;21301;-64
2023/09/25 02:35:01;;;;;;;1.30;1.00;;;15.30;99.90;;;;;;5105063;28;20426;-64
2023/09/25 02:37:29;;;;;;;3.90;1.30;;;15.30;99.90;;;;;;5104464;28;20802;-63
2023/09/25 02:39:55;;;;;;;1.70;1.13;;;15.20;99.90;;;;;;5105258;28;20198;-64
2023/09/25 02:42:21;;;;;;;1.40;1.30;;;15.20;99.90;;;;;;5086573;28;20454;-64
2023/09/25 02:44:46;;;;;;;2.00;1.17;;;15.20;99.90;;;;;;5104255;28;20195;-64
2023/09/25 02:47:12;;;;;;;1.80;1.40;;;15.20;99.90;;;;;;5105050;28;20241;-64
2023/09/25 02:49:37;;;;;;;2.33;1.37;;;15.20;99.90;;;;;;5103808;28;20253;-64
2023/09/25 02:52:03;;;;;;;2.17;1.63;;;15.20;99.90;;;;;;5104981;28;20168;-65
2023/09/25 02:54:29;;;;;;;1.63;1.53;;;15.20;99.90;;;;;;5104187;28;20283;-63
2023/09/25 02:56:54;;;;;;;1.87;1.40;;;15.10;99.90;;;;;;5104695;28;20245;-65
2023/09/25 02:59:20;;;;;;;1.20;1.10;;;15.10;99.90;;;;;;5104070;28;20188;-64
2023/09/25 03:01:46;;;;;;;1.87;1.33;;;15.00;99.90;;;;;;5104074;28;20182;-65
2023/09/25 03:04:11;;;;;;;2.23;1.37;;;14.90;99.90;;;;;;5104909;28;20342;-65
2023/09/25 03:06:37;;;;;;;1.40;1.20;;;14.80;99.90;;;;;;5103455;28;20176;-65
2023/09/25 03:09:03;;;;;;;1.57;1.30;;;14.80;99.90;;;;;;5086200;28;20183;-64
2023/09/25 03:11:30;;;;;;;1.93;1.43;;;14.80;99.90;;;;;;5103583;28;20300;-64
2023/09/25 03:13:56;;;;;;;2.17;1.40;;;14.80;99.90;;;;;;5104514;28;20180;-64
2023/09/25 03:16:21;;;;;;;2.40;1.30;;;14.90;99.90;;;;;;5104717;28;20421;-65
2023/09/25 03:18:47;;;;;;;2.30;1.87;;;14.90;99.90;;;;;;5103516;28;20634;-64
2023/09/25 03:21:14;;;;;;;1.83;1.40;;;15.00;99.90;;;;;;5104131;28;20626;-64
2023/09/25 03:23:41;;;;;;;2.70;1.80;;;15.00;99.90;;;;;;5103114;28;20218;-64
2023/09/25 03:26:17;;;;;;;1.70;1.60;;;15.00;99.90;;;;;;5103908;28;20925;-65
2023/09/25 03:28:44;;;;;;;1.53;1.30;;;15.10;99.90;;;;;;5103324;28;21290;-64
2023/09/25 03:31:11;;;;;;;2.00;1.57;;;15.10;99.90;;;;;;5103745;28;20430;-64
2023/09/25 03:33:38;;;;;;;1.40;1.30;;;15.10;99.90;;;;;;5103018;28;20429;-64
2023/09/25 03:36:04;;;;;;;2.27;1.63;;;15.00;99.90;;;;;;5103843;28;20421;-64
2023/09/25 03:38:30;;;;;;;5.93;1.40;;;15.10;99.90;;;;;;5102551;28;20437;-65
2023/09/25 03:40:56;;;;;;;2.30;1.30;;;15.10;99.90;;;;;;5085779;28;20999;-65
2023/09/25 03:43:21;;;;;;;1.80;1.50;;;15.10;99.90;;;;;;5103680;28;20461;-64
2023/09/25 03:45:48;;;;;;;2.60;1.40;;;15.00;99.90;;;;;;5103941;28;20206;-65
2023/09/25 03:48:13;;;;;;;1.87;1.67;;;15.00;99.90;;;;;;5103723;28;20186;-65
2023/09/25 03:50:39;;;;;;;1.70;1.60;;;15.00;99.90;;;;;;5102585;28;20437;-65
2023/09/25 03:53:06;;;;;;;2.70;1.57;;;15.00;99.90;;;;;;5103403;28;20290;-64
2023/09/25 03:55:32;;;;;;;1.30;1.20;;;15.00;99.90;;;;;;5102418;28;20520;-64
2023/09/25 03:57:58;;;;;;;2.13;1.93;;;14.90;99.90;;;;;;5103824;28;20187;-65
2023/09/25 04:00:26;;;;;;;1.60;1.50;;;14.90;99.90;;;;;;5102789;28;20434;-64
2023/09/25 04:02:52;;;;;;;1.70;1.37;;;15.00;99.90;;;;;;5102962;28;20828;-64
2023/09/25 04:05:18;;;;;;;1.67;1.57;;;14.90;99.90;;;;;;5103396;28;20468;-64
2023/09/25 04:07:45;;;;;;;2.30;1.70;;;14.90;99.90;;;;;;5102741;28;20520;-64
2023/09/25 04:10:11;;;;;;;2.20;1.40;;;14.90;99.90;;;;;;5103613;28;20176;-64
2023/09/25 04:12:37;;;;;;;1.93;1.77;;;14.90;99.90;;;;;;5102154;28;20482;-64
2023/09/25 04:15:16;;;;;;;3.07;1.63;;;15.00;99.90;;;;;;5103196;28;20198;-65
2023/09/25 04:17:42;;;;;;;2.33;1.50;;;15.00;99.90;;;;;;5102170;28;21360;-64
2023/09/25 04:20:16;;;;;;;2.00;1.53;;;15.00;99.90;;;;;;5103287;28;21194;-63
2023/09/25 04:22:41;;;;;;;2.97;1.70;;;15.00;99.90;;;;;;5102697;28;20461;-64
2023/09/25 04:25:10;;;;;;;1.70;1.50;;;15.00;99.90;;;;;;5103463;28;20440;-64
2023/09/25 04:27:36;;;;;;;1.73;1.63;;;14.90;99.90;;;;;;5094087;28;20184;-64
2023/09/25 04:30:08;;;;;;;1.90;1.67;;;14.90;99.90;;;;;;5102787;28;20461;-65
2023/09/25 04:32:34;;;;;;;3.20;1.43;;;14.80;99.90;;;;;;5102201;28;20846;-64
2023/09/25 04:34:59;;;;;;;5.27;1.80;;;14.90;99.90;;;;;;5103106;28;20421;-65
2023/09/25 04:37:25;;;;;;;1.50;1.20;;;14.80;99.90;;;;;;5101957;28;20180;-65
2023/09/25 04:39:51;;;;;;;1.57;1.43;;;14.80;99.90;;;;;;5102614;28;20187;-65
2023/09/25 04:42:17;;;;;;;1.70;1.60;;;14.80;99.90;;;;;;5102465;28;20218;-65
2023/09/25 04:44:43;;;;;;;1.50;1.40;;;14.80;99.90;;;;;;5099980;28;20610;-64
2023/09/25 04:47:10;;;;;;;1.83;1.50;;;14.70;99.90;;;;;;5092334;28;20438;-65
2023/09/25 04:49:35;;;;;;;1.97;1.40;;;14.70;99.90;;;;;;5099913;28;20204;-64
2023/09/25 04:52:01;;;;;;;1.40;1.30;;;14.70;99.90;;;;;;5091221;28;21186;-64
2023/09/25 04:54:27;;;;;;;1.63;1.17;;;14.60;99.90;;;;;;5108165;28;20263;-64
2023/09/25 04:56:52;;;;;;;2.83;1.60;;;14.60;99.90;;;;;;5122276;28;20421;-64
2023/09/25 04:59:18;;;;;;;2.50;1.67;;;14.60;99.90;;;;;;5105101;28;20194;-64
2023/09/25 05:01:44;;;;;;;1.30;1.20;;;14.60;99.90;;;;;;5102138;28;20180;-64
2023/09/25 05:04:10;;;;;;;2.30;1.53;;;14.50;99.90;;;;;;5084789;28;20750;-65
2023/09/25 05:06:35;;;;;;;2.07;1.97;;;14.60;99.90;;;;;;5103278;28;20180;-64
2023/09/25 05:09:02;;;;;;;2.47;1.40;;;14.50;99.90;;;;;;5106416;28;20426;-65
2023/09/25 05:11:28;;;;;;;1.80;1.70;;;14.50;99.90;;;;;;5105479;27;20622;-64
2023/09/25 05:13:54;;;;;;;2.23;1.73;;;14.60;99.90;;;;;;5107055;28;20486;-65
2023/09/25 05:16:19;;;;;;;2.00;1.60;;;14.60;99.90;;;;;;5106046;28;20373;-65
2023/09/25 05:18:45;;;;;;;2.17;1.50;;;14.60;99.90;;;;;;5106317;28;20186;-65
2023/09/25 05:21:11;;;;;;;1.60;1.50;;;14.50;99.90;;;;;;5106275;28;20186;-64
2023/09/25 05:23:38;;;;;;;1.87;1.67;;;14.60;99.90;;;;;;5105656;28;20211;-66
2023/09/25 05:26:03;;;;;;;2.60;1.63;;;14.60;99.90;;;;;;5106327;28;20490;-64
2023/09/25 05:28:29;;;;;;;1.90;1.60;;;14.60;99.90;;;;;;5105048;28;20429;-64
2023/09/25 05:30:56;;;;;;;1.73;1.53;;;14.50;99.90;;;;;;5105943;28;20179;-65
2023/09/25 05:33:22;;;;;;;1.40;1.30;;;14.60;99.90;;;;;;5106212;28;20203;-64
2023/09/25 05:35:48;;;;;;;1.77;1.43;;;14.50;99.90;;;;;;5106302;28;20427;-64
2023/09/25 05:38:14;;;;;;;2.40;1.50;;;14.50;99.90;;;;;;5106726;28;20449;-65
2023/09/25 05:40:40;;;;;;;2.10;1.50;;;14.50;99.90;;;;;;5104669;28;20450;-65
2023/09/25 05:43:06;;;;;;;1.90;1.60;;;14.50;99.90;;;;;;5092785;27;20211;-64
2023/09/25 05:45:31;;;;;;;2.10;1.90;;;14.50;99.90;;;;;;5106186;27;20256;-64
2023/09/25 05:47:57;;;;;;;2.33;1.60;;;14.50;99.90;;;;;;5105716;28;20198;-64
2023/09/25 05:50:26;;;;;;;1.87;1.60;;;14.50;99.90;;;;;;5104773;28;20282;-64
2023/09/25 05:52:52;;;;;;;3.10;1.70;;;14.50;99.90;;;;;;5106194;28;21333;-63
2023/09/25 05:55:18;;;;;;;1.70;1.60;;;14.50;99.90;;;;;;5105002;28;20606;-64
2023/09/25 05:57:43;;;;;;;2.33;2.00;;;14.50;99.90;;;;;;5097660;28;20474;-65
2023/09/25 06:00:11;;;;;;;2.27;1.63;;;14.50;99.90;;;;;;5105478;28;20432;-65
2023/09/25 06:02:38;;;;;;;2.00;1.80;;;14.50;99.90;;;;;;5104472;28;20312;-65
2023/09/25 06:05:05;;;;;;;2.20;2.00;;;14.50;99.90;;;;;;5104461;27;21391;-64
2023/09/25 06:07:30;;;;;;;2.10;2.00;;;14.50;99.90;;;;;;5104803;28;20422;-64
2023/09/25 06:09:56;;;;;;;2.30;1.93;;;14.60;99.90;;;;;;5087424;28;20843;-64
2023/09/25 06:12:22;;;;;;;1.50;1.40;;;14.60;99.90;;;;;;5104584;28;20271;-65
2023/09/25 06:14:48;;;;;;;2.33;2.13;;;14.70;99.90;;;;;;5105343;28;20211;-64
2023/09/25 06:17:15;;;;;;;2.00;1.80;;;14.70;99.90;;;;;;5097493;28;20445;-64
2023/09/25 06:19:41;;;;;;;1.70;1.60;;;14.70;99.90;;;;;;5101274;28;20263;-65
2023/09/25 06:22:07;;;;;;;5.57;1.70;;;14.80;99.90;;;;;;5098618;28;20447;-64
2023/09/25 06:24:32;;;;;;;2.57;1.70;;;14.80;99.90;;;;;;5102753;28;20787;-64
2023/09/25 06:26:59;;;;;;;2.40;1.53;;;14.90;99.90;;;;;;5104741;28;20221;-64
2023/09/25 06:29:25;;;;;;;1.87;1.50;;;14.90;99.90;;;;;;5103331;28;20266;-65
2023/09/25 06:31:51;;;;;;;3.60;1.70;;;14.90;99.90;;;;;;5113385;27;20439;-65
2023/09/25 06:34:17;;;;;;;2.60;1.73;;;15.00;99.90;;;;;;5101181;27;20188;-65
2023/09/25 06:36:42;;;;;;;3.73;2.73;;;15.00;99.90;;;;;;5094609;28;20191;-65
2023/09/25 06:39:09;;;;;;;3.13;1.47;;;15.10;99.90;;;;;;5102852;27;20190;-65
2023/09/25 06:41:41;;;;;;;2.10;1.90;;;15.10;99.90;;;;;;5104627;27;20203;-64
2023/09/25 06:44:07;;;;;;;3.30;1.70;;;15.10;99.90;;;;;;5103565;27;21092;-65
2023/09/25 06:46:34;;;;;;;2.07;1.60;;;15.10;99.90;;;;;;5109456;27;20532;-64
2023/09/25 06:49:00;;;;;;;2.00;1.80;;;15.10;99.90;;;;;;5109209;27;20429;-65
2023/09/25 06:51:29;;;;;;;1.60;1.50;;;15.10;99.90;;;;;;5101563;28;20450;-64
2023/09/25 06:53:55;;;;;;;2.53;1.70;;;15.10;99.90;;;;;;5110631;27;20436;-65
2023/09/25 06:56:22;;;;;;;3.23;1.97;;;15.10;99.90;;;;;;5093994;27;20787;-64
2023/09/25 06:58:47;;;;;;;2.00;1.80;;;15.10;99.90;;;;;;5096204;27;20418;-65
2023/09/25 07:01:13;;;;;;;3.83;1.80;;;15.10;99.90;;;;;;5111028;27;20845;-64
2023/09/25 07:03:39;;;;;;;1.80;1.70;;;15.20;99.90;;;;;;5104672;28;20218;-65
2023/09/25 07:06:05;;;;;;;2.23;1.70;;;15.20;99.90;;;;;;5104365;28;20446;-65
2023/09/25 07:08:31;;;;;;;2.53;1.70;;;15.30;99.90;;;;;;5102344;28;20270;-65
2023/09/25 07:10:58;;;;;;;4.00;1.57;;;15.40;99.90;;;;;;5104225;28;20564;-64
2023/09/25 07:13:24;;;;;;;2.60;2.00;;;15.50;99.90;;;;;;5104367;27;20188;-64
2023/09/25 07:15:50;;;;;;;2.63;1.90;;;15.50;99.90;;;;;;5106884;27;20429;-64
2023/09/25 07:18:17;;;;;;;2.23;1.40;;;15.70;99.90;;;;;;5103374;28;20791;-64
2023/09/25 07:20:45;;;;;;;2.03;1.63;;;15.80;99.90;;;;;;5103856;28;20193;-64
2023/09/25 07:23:11;;;;;;;4.10;1.67;;;15.90;99.90;;;;;;5104432;28;20552;-64
2023/09/25 07:25:37;;;;;;;1.90;1.70;;;15.90;99.90;;;;;;5103055;28;20475;-65
2023/09/25 07:28:03;;;;;;;1.67;1.43;;;15.90;99.90;;;;;;5103291;28;20418;-64
2023/09/25 07:30:29;;;;;;;1.63;1.53;;;16.00;99.90;;;;;;5097645;28;20191;-64
2023/09/25 07:32:55;;;;;;;2.23;2.03;;;16.10;99.90;;;;;;5103861;28;20450;-65
2023/09/25 07:35:20;;;;;;;2.07;1.30;;;16.20;99.90;;;;;;5102736;28;21243;-65
2023/09/25 07:37:47;;;;;;;1.93;1.53;;;16.20;99.90;;;;;;5085212;28;20441;-64
2023/09/25 07:40:14;;;;;;;2.03;1.80;;;16.30;99.90;;;;;;5103921;28;20227;-65
2023/09/25 07:42:40;;;;;;;3.27;1.70;;;16.30;99.90;;;;;;5103185;28;20992;-65
2023/09/25 07:45:11;;;;;;;1.40;1.30;;;16.30;99.90;;;;;;5103598;28;20901;-65
2023/09/25 07:47:40;;;;;;;3.10;1.80;;;16.40;99.90;;;;;;5102402;28;20902;-65
2023/09/25 07:50:10;;;;;;;2.27;1.60;;;16.50;99.90;;;;;;5103862;28;20449;-64
2023/09/25 07:52:40;;;;;;;1.83;1.70;;;16.60;99.90;;;;;;5102123;28;20517;-65
2023/09/25 07:55:09;;;;;;;1.93;1.53;;;16.70;99.90;;;;;;5085717;28;20458;-65
2023/09/25 07:57:35;;;;;;;3.07;1.90;;;16.80;99.90;;;;;;5084121;28;20434;-65
2023/09/25 08:00:15;;;;;;;2.10;1.50;;;17.00;99.90;;;;;;5103676;28;20428;-65
2023/09/25 08:02:47;;;;;;;2.03;1.50;;;17.10;99.90;;;;;;5103087;28;20207;-64
2023/09/25 08:05:18;;;;;;;2.57;1.50;;;17.10;99.90;;;;;;5103904;28;20775;-64
2023/09/25 08:07:44;;;;;;;2.43;2.00;;;17.20;99.90;;;;;;5085123;28;20521;-65
2023/09/25 08:10:11;;;;;;;1.80;1.67;;;17.20;99.90;;;;;;5103241;28;20533;-64
2023/09/25 08:12:36;;;;;;;2.30;1.70;;;17.20;99.90;;;;;;5102330;28;20440;-65
2023/09/25 08:15:02;;;;;;;2.00;1.60;;;17.20;99.90;;;;;;5102805;28;20433;-65
2023/09/25 08:17:29;;;;;;;2.80;1.50;;;17.30;99.90;;;;;;5102309;28;20184;-66
2023/09/25 08:19:55;;;;;;;2.60;1.90;;;17.40;99.90;;;;;;5102767;28;20514;-65
2023/09/25 08:22:21;;;;;;;3.10;1.83;;;17.50;99.90;;;;;;5112054;27;20563;-64
2023/09/25 08:24:47;;;;;;;2.27;1.73;;;17.50;99.90;;;;;;5117195;27;20183;-64
2023/09/25 08:27:13;;;;;;;1.87;1.63;;;17.50;99.90;;;;;;5095376;28;20191;-65
2023/09/25 08:29:39;;;;;;;2.60;1.70;;;17.50;99.90;;;;;;5098942;28;20441;-64
2023/09/25 08:32:05;;;;;;;4.43;2.20;;;17.50;99.90;;;;;;5114537;28;20871;-64
2023/09/25 08:34:31;;;;;;;1.70;1.50;;;17.60;99.90;;;;;;5099198;28;20176;-65
2023/09/25 08:36:57;;;;;;;2.13;1.43;;;17.60;99.90;;;;;;5100177;28;20438;-66
2023/09/25 08:39:22;;;;;;;2.87;1.80;;;17.70;99.90;;;;;;5103057;27;20187;-64
2023/09/25 08:41:48;;;;;;;2.90;1.50;;;17.70;99.90;;;;;;5104717;27;20619;-64
2023/09/25 08:44:18;;;;;;;2.80;2.03;;;17.70;99.90;;;;;;5125378;27;20268;-65
2023/09/25 08:46:44;;;;;;;2.30;1.90;;;17.80;99.90;;;;;;5095261;28;20183;-65
2023/09/25 08:49:11;;;;;;;5.73;1.63;;;17.80;99.90;;;;;;5105425;28;20516;-65
2023/09/25 08:51:39;;;;;;;2.13;1.60;;;17.90;99.90;;;;;;5087495;28;20959;-64
2023/09/25 08:54:06;;;;;;;1.90;1.43;;;17.90;99.90;;;;;;5105826;28;20471;-64
2023/09/25 08:56:32;;;;;;;2.90;1.53;;;18.00;99.90;;;;;;5103703;28;20425;-65
2023/09/25 08:59:03;;;;;;;1.83;1.30;;;18.10;99.90;;;;;;5106244;28;20429;-64
2023/09/25 09:01:29;;;;;;;4.10;1.80;;;18.20;99.90;;;;;;5103845;28;20530;-65
2023/09/25 09:03:56;;;;;;;2.13;1.53;;;18.20;99.90;;;;;;5106849;28;20473;-63
2023/09/25 09:06:21;;;;;;;4.57;1.60;;;18.20;99.90;;;;;;5106383;28;20433;-64
2023/09/25 09:08:48;;;;;;;2.80;1.70;;;18.30;99.90;;;;;;5106989;28;20433;-64
2023/09/25 09:11:14;;;;;;;1.40;1.30;;;18.40;99.90;;;;;;5106095;28;20244;-65
2023/09/25 09:13:47;;;;;;;3.30;1.83;;;18.50;99.90;;;;;;5106000;28;20429;-65
2023/09/25 09:16:15;;;;;;;1.90;1.67;;;18.60;99.90;;;;;;5088397;28;20470;-64
2023/09/25 09:18:41;;;;;;;1.93;1.37;;;18.70;99.90;;;;;;5106212;28;20550;-63
2023/09/25 09:21:24;;;;;;;1.90;1.40;;;18.80;99.90;;;;;;5107055;28;21088;-64
2023/09/25 09:23:51;;;;;;;2.30;1.40;;;18.90;99.90;;;;;;5105605;28;20468;-65
2023/09/25 09:26:17;;;;;;;2.83;1.70;;;19.00;99.90;;;;;;5106068;28;20421;-64
2023/09/25 09:28:46;;;;;;;2.10;1.60;;;19.10;99.80;;;;;;5106195;28;20428;-64
2023/09/25 09:31:14;;;;;;;3.47;1.60;;;19.30;99.10;;;;;;5105336;28;20633;-64
2023/09/25 09:33:43;;;;;;;2.00;1.60;;;19.50;99.10;;;;;;5107030;28;20422;-66
2023/09/25 09:36:13;;;;;;;2.20;1.30;;;19.60;99.20;;;;;;5105501;28;21061;-64
2023/09/25 09:38:40;;;;;;;1.40;1.30;;;19.80;98.10;;;;;;5105611;28;21044;-64
2023/09/25 09:41:06;;;;;;;1.87;1.30;;;19.90;97.40;;;;;;5105717;28;20444;-64
2023/09/25 09:43:32;;;;;;;2.00;1.80;;;19.90;97.00;;;;;;5104464;28;20519;-63
2023/09/25 09:46:00;;;;;;;2.17;1.77;;;20.00;97.20;;;;;;5105519;28;20521;-65
2023/09/25 09:48:29;;;;;;;2.80;1.40;;;20.10;97.30;;;;;;5104384;28;20421;-64
2023/09/25 09:51:02;;;;;;;2.30;1.57;;;20.10;96.60;;;;;;5087758;28;20553;-64
2023/09/25 09:53:28;;;;;;;1.77;1.50;;;20.10;96.20;;;;;;5104229;28;20460;-64
2023/09/25 09:55:58;;;;;;;1.83;1.43;;;20.20;97.20;;;;;;5106081;28;20957;-63
2023/09/25 09:58:26;;;;;;;2.33;1.70;;;20.20;96.90;;;;;;5104147;28;20432;-65
2023/09/25 10:00:54;;;;;;;2.60;1.97;;;20.30;96.10;;;;;;5105866;28;20425;-65
2023/09/25 10:03:20;;;;;;;2.60;1.57;;;20.30;95.70;;;;;;5104350;28;20457;-63
2023/09/25 10:05:50;;;;;;;1.67;1.43;;;20.40;96.30;;;;;;5105217;28;20437;-65
2023/09/25 10:08:16;;;;;;;1.50;1.40;;;20.50;96.00;;;;;;5104755;28;21218;-65
2023/09/25 10:10:46;;;;;;;1.47;1.30;;;20.60;96.80;;;;;;5104926;28;20452;-64
2023/09/25 10:13:28;;;;;;;4.10;1.97;;;20.70;97.00;;;;;;5105298;28;20444;-64
2023/09/25 10:16:01;;;;;;;2.90;1.60;;;20.80;96.60;;;;;;5099370;28;20442;-64
2023/09/25 10:18:30;;;;;;;2.27;1.30;;;21.00;96.20;;;;;;5104638;28;20793;-65
2023/09/25 10:21:09;;;;;;;1.60;1.30;;;21.00;94.40;;;;;;5105598;28;20512;-64
2023/09/25 10:23:39;;;;;;;1.50;1.33;;;21.00;93.90;;;;;;5104915;28;20469;-63
2023/09/25 10:26:16;;;;;;;3.43;1.70;;;21.10;94.00;;;;;;5105397;28;20528;-64
2023/09/25 10:28:42;;;;;;;2.23;1.37;;;21.20;93.70;;;;;;5105299;28;20437;-64
2023/09/25 10:31:21;;;;;;;3.77;1.30;;;21.20;93.60;;;;;;5105033;28;20855;-63
2023/09/25 10:34:00;;;;;;;2.37;1.20;;;21.20;93.70;;;;;;5098137;28;20274;-63
2023/09/25 10:36:41;;;;;;;1.93;1.50;;;21.20;93.90;;;;;;5085621;28;20425;-63
2023/09/25 10:39:13;;;;;;;1.50;0.97;;;21.10;93.20;;;;;;5105451;28;20414;-65
2023/09/25 10:41:41;;;;;;;1.10;1.00;;;21.20;93.80;;;;;;5105271;28;20433;-63
2023/09/25 10:44:09;;;;;;;1.50;1.10;;;21.10;93.80;;;;;;5104605;28;20580;-64
2023/09/25 10:46:35;;;;;;;22.20;5.00;;;21.20;92.40;;;;;;5105216;28;20849;-64
2023/09/25 10:49:01;;;;;;;13.30;2.47;;;21.10;92.00;;;;;;5104814;28;20458;-63
2023/09/25 10:51:27;;;;;;;12.27;3.23;;;21.10;92.60;;;;;;5086155;28;20226;-65
2023/09/25 10:53:54;;;;;;;2.70;1.47;;;21.10;92.50;;;;;;5104912;28;20187;-62
2023/09/25 10:56:19;;;;;;;2.10;1.30;;;21.10;92.10;;;;;;5102800;28;20195;-64
2023/09/25 10:58:50;;;;;;;9.50;2.47;;;21.10;92.90;;;;;;5097572;28;20761;-66
2023/09/25 11:01:29;;;;;;;1.60;1.10;;;21.20;92.80;;;;;;5085869;28;20191;-66
2023/09/25 11:03:57;;;;;;;1.43;1.23;;;21.20;91.30;;;;;;5097220;28;20484;-64
2023/09/25 11:06:23;;;;;;;2.00;1.17;;;21.20;91.40;;;;;;5102602;28;21002;-65
2023/09/25 11:09:05;;;;;;;1.27;1.17;;;21.20;91.20;;;;;;5103654;28;20516;-65
2023/09/25 11:11:31;;;;;;;2.53;1.00;;;21.20;91.50;;;;;;5103749;28;20651;-65
2023/09/25 11:13:58;;;;;;;3.30;1.30;;;21.20;90.60;;;;;;5105033;28;20821;-65
2023/09/25 11:16:24;;;;;;;1.40;1.30;;;21.10;91.80;;;;;;5102581;28;20430;-65
2023/09/25 11:19:04;;;;;;;3.47;1.40;;;21.20;92.50;;;;;;5103892;28;20810;-65
2023/09/25 11:21:31;;;;;;;1.10;1.00;;;21.30;92.10;;;;;;5104061;28;20553;-64
2023/09/25 11:23:57;;;;;;;1.90;1.37;;;21.30;91.80;;;;;;5086402;28;20479;-65
2023/09/25 11:26:27;;;;;;;1.27;1.13;;;21.40;91.40;;;;;;5103248;28;20422;-66
2023/09/25 11:28:57;;;;;;;1.43;1.33;;;21.30;90.80;;;;;;5103345;28;20214;-65
2023/09/25 11:31:25;;;;;;;2.77;1.43;;;21.40;90.80;;;;;;5102427;28;20428;-65
2023/09/25 11:33:51;;;;;;;1.87;1.37;;;21.40;91.00;;;;;;5103430;28;20495;-65
2023/09/25 11:36:19;;;;;;;1.67;1.33;;;21.40;91.20;;;;;;5102745;28;20426;-65
2023/09/25 11:38:49;;;;;;;9.00;2.30;;;21.40;90.70;;;;;;5103092;28;20460;-65
2023/09/25 11:41:15;;;;;;;4.30;1.50;;;21.40;90.70;;;;;;5102542;28;20432;-64
2023/09/25 11:43:41;;;;;;;1.33;1.20;;;21.50;90.70;;;;;;5103549;28;20462;-65
2023/09/25 11:46:06;;;;;;;1.67;1.30;;;21.50;90.00;;;;;;5103006;28;20183;-64
2023/09/25 11:48:33;;;;;;;1.33;1.10;;;21.50;90.00;;;;;;5101736;28;20270;-64
2023/09/25 11:51:00;;;;;;;1.23;1.03;;;21.50;88.80;;;;;;5102970;28;20646;-64
2023/09/25 11:53:26;;;;;;;1.10;1.00;;;21.50;90.10;;;;;;5102220;28;20429;-64
2023/09/25 11:55:53;;;;;;;2.07;1.30;;;21.50;90.70;;;;;;5103070;28;20421;-64
2023/09/25 11:58:19;;;;;;;1.90;1.30;;;21.60;89.70;;;;;;5101999;28;20421;-65
2023/09/25 12:00:45;;;;;;;4.57;1.30;;;21.60;90.50;;;;;;5103266;28;20795;-64
2023/09/25 12:03:11;;;;;;;1.70;1.60;;;21.70;89.70;;;;;;5103041;28;21063;-65
2023/09/25 12:05:37;;;;;;;2.00;1.53;;;21.70;90.00;;;;;;5102112;28;20430;-65
2023/09/25 12:08:04;;;;;;;1.50;1.20;;;21.70;89.80;;;;;;5102619;28;20430;-64
2023/09/25 12:10:37;;;;;;;1.50;1.33;;;21.70;90.70;;;;;;5103390;28;20199;-64
2023/09/25 12:13:03;;;;;;;1.93;1.50;;;21.70;90.30;;;;;;5103377;28;20445;-65
2023/09/25 12:15:29;;;;;;;1.30;1.20;;;21.80;90.70;;;;;;5101972;28;21104;-64
2023/09/25 12:17:55;;;;;;;1.27;1.10;;;21.80;90.40;;;;;;5103361;28;20567;-64
2023/09/25 12:20:22;;;;;;;4.80;1.63;;;21.80;89.40;;;;;;5084497;28;20190;-64
2023/09/25 12:22:52;;;;;;;1.77;1.20;;;21.80;90.40;;;;;;5102472;28;20235;-65
2023/09/25 12:25:19;;;;;;;1.37;1.00;;;21.90;91.40;;;;;;5102015;28;20430;-65
2023/09/25 12:27:46;;;;;;;1.83;1.60;;;22.00;90.30;;;;;;5102315;28;20880;-64
2023/09/25 12:30:16;;;;;;;2.83;1.33;;;22.00;90.50;;;;;;5101975;28;20462;-65
2023/09/25 12:32:43;;;;;;;1.57;1.13;;;22.00;91.10;;;;;;5102514;28;20433;-64
2023/09/25 12:35:15;;;;;;;1.20;1.10;;;22.00;89.80;;;;;;5084344;28;20457;-64
2023/09/25 12:37:45;;;;;;;1.60;1.20;;;22.10;90.90;;;;;;5101938;28;20426;-65
2023/09/25 12:40:15;;;;;;;1.20;1.10;;;22.10;89.00;;;;;;5102640;28;20425;-65
2023/09/25 12:42:42;;;;;;;1.60;1.20;;;22.20;85.10;;;;;;5102312;28;20465;-64
2023/09/25 12:45:09;;;;;;;1.73;1.30;;;22.10;83.90;;;;;;5101659;28;20492;-64
2023/09/25 12:47:35;;;;;;;1.83;1.30;;;22.00;87.10;;;;;;5103046;28;20888;-65